Time;durP1;ratioP1;P1;durP2;ratioP2;P2;SDS_P1;SDS_P2;PMS_P1;PMS_P2;Temp;Humidity;BMP_temperature;BMP_pressure;BME280_temperature;BME280_humidity;BME280_pressure;Samples;Min_cycle;Max_cycle;Signal;HPM_P1;HPM_P2
2022/11/19 00:00:45;;;;;;;7.75;5.85;;;1.20;99.90;;;;;;5015313;28;20081;-74
2022/11/19 00:03:15;;;;;;;6.70;5.82;;;1.20;99.90;;;;;;5015151;28;20363;-74
2022/11/19 00:05:42;;;;;;;8.07;6.43;;;1.20;99.90;;;;;;5015439;28;20077;-74
2022/11/19 00:08:08;;;;;;;7.32;6.20;;;1.20;99.90;;;;;;4981801;28;20128;-74
2022/11/19 00:10:37;;;;;;;8.75;6.90;;;1.10;99.90;;;;;;5014810;28;20533;-74
2022/11/19 00:13:05;;;;;;;7.03;5.90;;;1.20;99.90;;;;;;5014880;28;20042;-74
2022/11/19 00:15:33;;;;;;;7.78;6.10;;;1.00;99.90;;;;;;5015684;28;20089;-73
2022/11/19 00:17:59;;;;;;;7.82;6.82;;;1.00;99.90;;;;;;5015133;28;20049;-74
2022/11/19 00:20:25;;;;;;;8.45;6.18;;;1.00;99.90;;;;;;5015014;28;20046;-74
2022/11/19 00:22:52;;;;;;;7.72;6.57;;;1.60;99.90;;;;;;5015343;28;20057;-74
2022/11/19 00:25:19;;;;;;;9.48;7.45;;;0.90;99.90;;;;;;5034883;28;20049;-74
2022/11/19 00:27:45;;;;;;;8.60;7.07;;;0.80;99.90;;;;;;5023133;28;20041;-74
2022/11/19 00:30:11;;;;;;;7.90;6.93;;;0.80;99.90;;;;;;5014268;28;20344;-74
2022/11/19 00:32:36;;;;;;;7.95;6.38;;;0.70;99.90;;;;;;5015020;28;20057;-74
2022/11/19 00:35:03;;;;;;;8.48;7.10;;;0.60;99.90;;;;;;5015255;28;20046;-74
2022/11/19 00:37:28;;;;;;;9.63;7.55;;;0.60;99.90;;;;;;5017117;28;20053;-74
2022/11/19 00:39:54;;;;;;;7.90;6.32;;;0.50;99.90;;;;;;5034851;28;20049;-74
2022/11/19 00:42:20;;;;;;;8.75;7.70;;;0.50;99.90;;;;;;5032264;28;20052;-74
2022/11/19 00:44:45;;;;;;;9.55;7.32;;;0.40;99.90;;;;;;5015233;28;20096;-74
2022/11/19 00:47:11;;;;;;;8.65;6.97;;;0.40;99.90;;;;;;5014700;28;20402;-74
2022/11/19 00:49:37;;;;;;;8.10;7.00;;;0.30;99.90;;;;;;5014905;28;20049;-74
2022/11/19 00:52:02;;;;;;;8.85;6.80;;;0.30;99.90;;;;;;5015018;28;20366;-74
2022/11/19 00:54:28;;;;;;;8.55;7.47;;;0.30;99.90;;;;;;5014966;28;20038;-74
2022/11/19 00:56:53;;;;;;;8.93;7.18;;;0.30;99.90;;;;;;5016056;28;20125;-73
2022/11/19 00:59:19;;;;;;;8.75;7.85;;;0.30;99.90;;;;;;5018170;28;20104;-73
2022/11/19 01:01:44;;;;;;;10.00;8.15;;;0.30;99.90;;;;;;5018087;28;20060;-73
2022/11/19 01:04:10;;;;;;;8.88;7.22;;;0.20;99.90;;;;;;5017994;28;20100;-74
2022/11/19 01:06:36;;;;;;;10.95;7.85;;;0.20;99.90;;;;;;5018412;28;20466;-73
2022/11/19 01:09:02;;;;;;;9.13;7.53;;;0.20;99.90;;;;;;5018489;28;20430;-73
2022/11/19 01:11:31;;;;;;;8.85;7.88;;;0.50;99.90;;;;;;5018329;28;20041;-74
2022/11/19 01:13:57;;;;;;;9.52;8.10;;;0.10;99.90;;;;;;5018154;28;20497;-74
2022/11/19 01:16:27;;;;;;;9.70;8.00;;;0.10;99.90;;;;;;5018118;28;20521;-74
2022/11/19 01:18:53;;;;;;;10.20;8.20;;;0.10;99.90;;;;;;5017726;28;20094;-74
2022/11/19 01:21:21;;;;;;;10.02;8.35;;;0.20;99.90;;;;;;5018130;28;20042;-74
2022/11/19 01:23:48;;;;;;;8.93;7.65;;;0.20;99.90;;;;;;5017237;28;20408;-74
2022/11/19 01:26:14;;;;;;;10.00;8.88;;;0.10;99.90;;;;;;5037195;28;20457;-74
2022/11/19 01:28:41;;;;;;;10.57;7.60;;;0.00;99.90;;;;;;5037416;28;20544;-74
2022/11/19 01:31:15;;;;;;;11.05;7.78;;;0.10;99.90;;;;;;5037643;28;20054;-74
2022/11/19 01:33:41;;;;;;;10.30;8.85;;;0.00;99.90;;;;;;5027161;28;20125;-74
2022/11/19 01:36:10;;;;;;;10.25;8.98;;;0.00;99.90;;;;;;5017873;28;20414;-74
2022/11/19 01:38:36;;;;;;;9.18;8.00;;;0.00;99.90;;;;;;5017207;28;20529;-74
2022/11/19 01:41:03;;;;;;;9.77;8.30;;;0.00;99.90;;;;;;5017543;28;20125;-74
2022/11/19 01:43:46;;;;;;;10.15;8.80;;;-0.10;99.90;;;;;;5017283;28;20458;-74
2022/11/19 01:46:15;;;;;;;9.15;7.95;;;-0.10;99.90;;;;;;5017892;28;20077;-74
2022/11/19 01:48:48;;;;;;;12.10;8.90;;;0.00;99.90;;;;;;5017815;28;20082;-74
2022/11/19 01:51:43;;;;;;;;;;;-0.10;99.90;;;;;;5017746;28;20054;-74
2022/11/19 01:54:20;;;;;;;;;;;-0.10;99.90;;;;;;4958737;28;19985;-74
2022/11/19 01:56:46;;;;;;;10.35;8.88;;;0.00;99.90;;;;;;5017373;28;19921;-75
2022/11/19 01:59:16;;;;;;;9.75;8.32;;;-0.10;99.90;;;;;;5017247;28;20374;-74
2022/11/19 02:01:44;;;;;;;8.93;8.02;;;-0.10;99.90;;;;;;5017024;28;20041;-74
2022/11/19 02:04:10;;;;;;;10.25;8.35;;;-0.10;99.90;;;;;;5016679;28;20045;-74
2022/11/19 02:06:38;;;;;;;9.75;8.48;;;-0.10;99.90;;;;;;5017538;28;20324;-74
2022/11/19 02:09:03;;;;;;;9.77;8.05;;;-0.10;99.90;;;;;;5016140;28;20046;-73
2022/11/19 02:11:53;;;;;;;10.00;7.68;;;-0.10;99.90;;;;;;5017210;28;20038;-74
2022/11/19 02:14:39;;;;;;;9.30;7.97;;;-0.20;99.90;;;;;;5016512;28;20046;-74
2022/11/19 02:17:17;;;;;;;10.25;8.30;;;-0.10;99.90;;;;;;4998025;28;20038;-74
2022/11/19 02:20:27;;;;;;;9.13;7.68;;;-0.20;99.90;;;;;;4998130;28;20324;-74
2022/11/19 02:23:32;;;;;;;9.40;7.85;;;-0.20;99.90;;;;;;4997656;28;20057;-74
2022/11/19 02:26:25;;;;;;;10.75;8.57;;;-0.20;99.90;;;;;;5016911;28;20162;-74
2022/11/19 02:29:02;;;;;;;11.40;8.47;;;-0.20;99.90;;;;;;5036426;28;20100;-74
2022/11/19 02:31:39;;;;;;;10.07;8.27;;;-0.30;99.90;;;;;;5036341;28;20312;-74
2022/11/19 02:34:07;;;;;;;9.65;8.13;;;-0.30;99.90;;;;;;5036458;28;20057;-74
2022/11/19 02:36:46;;;;;;;9.52;8.15;;;-0.40;99.90;;;;;;5036608;28;20134;-74
2022/11/19 02:39:22;;;;;;;11.05;8.55;;;0.10;99.90;;;;;;5022405;28;20089;-74
2022/11/19 02:42:06;;;;;;;10.43;8.10;;;-0.40;99.90;;;;;;5018659;28;20446;-74
2022/11/19 02:44:59;;;;;;;9.82;8.10;;;-0.50;99.90;;;;;;5036545;28;20327;-74
2022/11/19 02:47:28;;;;;;;10.27;8.38;;;-0.50;99.90;;;;;;5036898;28;20373;-74
2022/11/19 02:49:58;;;;;;;10.20;8.00;;;-0.50;99.90;;;;;;5035936;28;20114;-74
2022/11/19 02:52:23;;;;;;;9.85;8.07;;;-0.50;99.90;;;;;;5035309;28;20127;-74
2022/11/19 02:54:49;;;;;;;9.70;7.93;;;-0.50;99.90;;;;;;5016328;28;20466;-74
2022/11/19 02:57:15;;;;;;;10.25;9.00;;;-0.60;99.90;;;;;;5016525;28;20049;-73
2022/11/19 03:05:20;;;;;;;10.10;8.88;;;-0.60;99.90;;;;;;5016143;28;20108;-74
2022/11/19 03:07:47;;;;;;;9.90;8.30;;;-0.70;99.90;;;;;;5016118;28;20070;-73
2022/11/19 03:10:14;;;;;;;11.07;8.73;;;-0.20;99.90;;;;;;5015699;28;20064;-75
2022/11/19 03:12:46;;;;;;;9.68;8.48;;;-0.70;99.90;;;;;;5016338;28;20108;-74
2022/11/19 03:18:19;;;;;;;13.75;9.77;;;-0.70;99.90;;;;;;5016125;28;20053;-73
2022/11/19 03:21:03;;;;;;;11.32;9.38;;;-0.80;99.90;;;;;;5015054;28;20053;-74
2022/11/19 03:23:32;;;;;;;11.18;9.55;;;-0.90;99.90;;;;;;5015570;28;20037;-73
2022/11/19 03:26:12;;;;;;;10.63;9.02;;;-0.90;99.90;;;;;;5017932;28;20051;-74
2022/11/19 03:28:37;;;;;;;11.02;9.10;;;-1.00;99.90;;;;;;5035662;28;20052;-73
2022/11/19 03:31:05;;;;;;;12.57;9.75;;;-1.00;99.90;;;;;;5035448;28;20049;-74
2022/11/19 03:33:41;;;;;;;11.18;9.40;;;-1.00;99.90;;;;;;5035258;28;20077;-74
2022/11/19 03:36:18;;;;;;;11.02;9.70;;;-1.00;99.90;;;;;;5018287;28;20077;-73
2022/11/19 03:38:49;;;;;;;11.65;10.02;;;-1.00;99.90;;;;;;5017232;28;20081;-74
2022/11/19 03:41:17;;;;;;;11.73;10.43;;;-1.00;99.90;;;;;;5015717;28;20064;-74
2022/11/19 03:43:50;;;;;;;11.38;9.75;;;-1.00;99.90;;;;;;5015531;28;20355;-74
2022/11/19 03:46:17;;;;;;;11.43;9.27;;;-1.00;99.90;;;;;;5015940;28;20052;-74
2022/11/19 03:48:47;;;;;;;11.10;9.43;;;-1.00;99.90;;;;;;5015704;28;20042;-74
2022/11/19 03:51:45;;;;;;;11.40;9.18;;;-1.10;99.90;;;;;;5015332;28;20042;-73
2022/11/19 03:54:11;;;;;;;12.18;10.23;;;-1.00;99.90;;;;;;4991655;28;20062;-73
2022/11/19 03:56:39;;;;;;;10.85;8.88;;;-0.70;99.90;;;;;;4995864;28;20042;-74
2022/11/19 03:59:05;;;;;;;10.70;8.75;;;-1.00;99.90;;;;;;4995787;28;20465;-74
2022/11/19 04:01:32;;;;;;;12.20;9.00;;;-1.00;99.90;;;;;;4995467;28;20479;-74
2022/11/19 04:06:42;;;;;;;11.45;9.18;;;-1.00;99.90;;;;;;5000981;28;20115;-74
2022/11/19 04:09:08;;;;;;;11.70;9.80;;;-1.00;99.90;;;;;;5014903;28;20410;-74
2022/11/19 04:11:33;;;;;;;12.98;10.07;;;-1.10;99.90;;;;;;5015085;28;20057;-74
2022/11/19 04:13:59;;;;;;;12.32;9.70;;;-1.10;99.90;;;;;;5015270;28;20050;-75
2022/11/19 04:16:24;;;;;;;12.25;9.32;;;-1.10;99.90;;;;;;5015540;28;20046;-74
2022/11/19 04:18:50;;;;;;;10.98;9.65;;;-1.10;99.90;;;;;;5015890;28;20478;-73
2022/11/19 04:21:15;;;;;;;13.75;10.65;;;-1.10;99.90;;;;;;5015093;28;20461;-74
2022/11/19 04:23:41;;;;;;;12.82;10.95;;;-1.10;99.90;;;;;;5015095;28;20042;-74
2022/11/19 04:26:06;;;;;;;12.88;10.23;;;-1.20;99.90;;;;;;5034540;28;20037;-74
2022/11/19 04:28:32;;;;;;;14.80;9.95;;;-1.20;99.90;;;;;;5034676;28;20045;-74
2022/11/19 04:30:57;;;;;;;10.63;9.20;;;-1.20;99.90;;;;;;5034763;28;20038;-73
2022/11/19 04:33:23;;;;;;;13.48;9.95;;;-1.20;99.90;;;;;;5039022;28;20045;-74
2022/11/19 04:35:49;;;;;;;9.90;8.43;;;-1.20;99.90;;;;;;5038903;28;20041;-74
2022/11/19 04:38:14;;;;;;;11.50;9.52;;;-1.20;99.90;;;;;;5032727;28;20122;-74
2022/11/19 04:40:41;;;;;;;11.35;9.57;;;-1.20;99.90;;;;;;5001441;28;20465;-75
2022/11/19 04:43:06;;;;;;;15.75;10.25;;;-1.20;99.90;;;;;;5018614;28;20049;-74
2022/11/19 04:45:32;;;;;;;12.63;9.85;;;-1.20;99.90;;;;;;5018005;28;20465;-74
2022/11/19 04:47:57;;;;;;;10.90;9.48;;;-1.30;99.90;;;;;;5018277;28;20121;-74
2022/11/19 04:50:23;;;;;;;14.65;10.27;;;-1.30;99.90;;;;;;5018417;28;20052;-74
2022/11/19 04:52:48;;;;;;;12.38;9.88;;;-1.30;99.90;;;;;;5018457;28;20509;-74
2022/11/19 04:55:14;;;;;;;14.23;10.65;;;-1.30;99.90;;;;;;5018627;28;20080;-74
2022/11/19 04:57:39;;;;;;;13.82;9.85;;;-1.30;99.90;;;;;;5017987;28;20042;-74
2022/11/19 05:00:06;;;;;;;13.88;10.35;;;-1.30;99.90;;;;;;5018550;28;20038;-75
2022/11/19 05:02:32;;;;;;;13.15;10.50;;;-1.30;99.90;;;;;;5001328;28;20072;-74
2022/11/19 05:04:57;;;;;;;13.18;10.48;;;-1.30;99.90;;;;;;5018484;28;20446;-74
2022/11/19 05:07:23;;;;;;;12.60;10.63;;;-1.40;99.90;;;;;;5000979;28;20046;-75
2022/11/19 05:09:48;;;;;;;14.38;10.77;;;-0.90;99.90;;;;;;5018400;28;20361;-74
2022/11/19 05:12:14;;;;;;;13.23;10.07;;;-1.40;99.90;;;;;;5017481;28;20061;-74
2022/11/19 05:14:40;;;;;;;11.27;9.57;;;-1.10;99.90;;;;;;5018353;28;20046;-74
2022/11/19 05:17:05;;;;;;;12.27;10.02;;;-1.40;99.90;;;;;;5018875;28;20455;-74
2022/11/19 05:19:31;;;;;;;12.23;10.55;;;-1.40;99.90;;;;;;5018288;28;20099;-74
2022/11/19 05:21:56;;;;;;;12.23;10.10;;;-1.50;99.90;;;;;;5017897;28;20046;-74
2022/11/19 05:24:22;;;;;;;11.63;9.77;;;-1.50;99.90;;;;;;5018137;28;20061;-75
2022/11/19 05:26:47;;;;;;;14.15;10.93;;;-1.50;99.90;;;;;;5017792;28;20078;-75
2022/11/19 05:29:13;;;;;;;14.30;11.13;;;-1.50;99.90;;;;;;5017333;28;20052;-76
2022/11/19 05:31:39;;;;;;;15.15;10.60;;;-1.50;99.90;;;;;;5018092;28;20042;-74
2022/11/19 05:34:04;;;;;;;13.30;10.80;;;-1.50;99.90;;;;;;5017095;28;20046;-74
2022/11/19 05:36:30;;;;;;;13.48;10.32;;;-1.50;99.90;;;;;;5018205;28;20046;-75
2022/11/19 05:38:55;;;;;;;13.95;11.23;;;-1.60;99.90;;;;;;5017668;28;20038;-75
2022/11/19 05:41:21;;;;;;;12.40;9.95;;;-1.60;99.90;;;;;;5017063;28;20049;-74
2022/11/19 05:43:46;;;;;;;14.45;11.55;;;-1.60;99.90;;;;;;5016653;28;20179;-75
2022/11/19 05:46:12;;;;;;;17.48;11.35;;;-1.60;99.90;;;;;;5017559;28;20053;-75
2022/11/19 05:48:38;;;;;;;13.13;11.25;;;-1.60;99.90;;;;;;5017490;28;20136;-75
2022/11/19 05:51:03;;;;;;;14.30;11.25;;;-1.60;99.90;;;;;;5018034;28;20163;-74
2022/11/19 05:53:29;;;;;;;14.65;11.50;;;-1.60;99.90;;;;;;4999810;28;20056;-75
2022/11/19 05:55:54;;;;;;;13.68;11.98;;;-1.60;99.90;;;;;;5000481;28;20041;-75
2022/11/19 05:58:20;;;;;;;14.57;11.18;;;-1.60;99.90;;;;;;5017202;28;20100;-74
2022/11/19 06:00:46;;;;;;;15.23;11.48;;;-1.60;99.90;;;;;;5017530;28;20068;-74
2022/11/19 06:03:12;;;;;;;14.60;11.65;;;-1.60;99.90;;;;;;5016991;28;20038;-75
2022/11/19 06:05:37;;;;;;;14.77;11.93;;;-1.70;99.90;;;;;;5017477;28;20046;-75
2022/11/19 06:08:04;;;;;;;14.02;11.68;;;-1.70;99.90;;;;;;5017182;28;20042;-75
2022/11/19 06:10:29;;;;;;;14.90;11.95;;;-1.70;99.90;;;;;;5016919;28;20046;-74
2022/11/19 06:12:55;;;;;;;15.25;12.75;;;-1.70;99.90;;;;;;5016999;28;20108;-75
2022/11/19 06:15:20;;;;;;;13.38;11.07;;;-1.70;99.90;;;;;;5016968;28;20050;-74
2022/11/19 06:17:46;;;;;;;13.52;11.30;;;-1.70;99.90;;;;;;5016185;28;20041;-74
2022/11/19 06:20:12;;;;;;;13.98;10.90;;;-1.70;99.90;;;;;;5016571;28;20045;-75
2022/11/19 06:22:38;;;;;;;14.63;11.95;;;-1.70;99.90;;;;;;5016769;28;20354;-73
2022/11/19 06:25:05;;;;;;;14.45;12.18;;;-1.70;99.90;;;;;;5017203;28;20113;-75
2022/11/19 06:27:30;;;;;;;15.07;12.23;;;-1.80;99.90;;;;;;5016550;28;20550;-74
2022/11/19 06:29:56;;;;;;;15.75;11.77;;;-1.80;99.90;;;;;;5016749;28;20131;-75
2022/11/19 06:32:22;;;;;;;15.77;12.15;;;-1.80;99.90;;;;;;5016979;28;20353;-76
2022/11/19 06:34:47;;;;;;;17.88;12.65;;;-1.80;99.90;;;;;;5015478;28;20355;-74
2022/11/19 06:37:13;;;;;;;14.18;12.07;;;-1.70;99.90;;;;;;5016835;28;20056;-75
2022/11/19 06:39:39;;;;;;;17.88;12.45;;;-1.80;99.90;;;;;;5016434;28;20392;-75
2022/11/19 06:44:48;;;;;;;14.82;11.77;;;-1.80;99.90;;;;;;5016738;28;20046;-75
2022/11/19 06:47:14;;;;;;;14.25;11.85;;;-1.80;99.90;;;;;;5016170;28;20045;-74
2022/11/19 06:49:39;;;;;;;14.95;11.93;;;-1.80;99.90;;;;;;4999962;28;20108;-75
2022/11/19 06:52:05;;;;;;;15.77;12.15;;;-1.80;99.90;;;;;;4998679;28;20133;-75
2022/11/19 06:54:30;;;;;;;17.02;12.55;;;-1.00;99.90;;;;;;4999298;28;20430;-75
2022/11/19 06:56:56;;;;;;;17.15;12.88;;;-1.30;99.90;;;;;;5016969;28;20359;-74
2022/11/19 06:59:21;;;;;;;14.18;11.73;;;-1.90;99.90;;;;;;5016372;28;20048;-75
2022/11/19 07:01:47;;;;;;;15.38;12.23;;;-1.90;99.90;;;;;;5016178;28;20081;-75
2022/11/19 07:04:13;;;;;;;14.75;12.68;;;-1.90;99.90;;;;;;4999248;28;20057;-75
2022/11/19 07:06:38;;;;;;;15.00;12.80;;;-1.90;99.90;;;;;;5016280;28;20104;-75
2022/11/19 07:09:04;;;;;;;17.02;13.13;;;-2.00;99.90;;;;;;5016085;28;20142;-74
2022/11/19 07:11:29;;;;;;;15.55;12.95;;;-2.00;99.90;;;;;;5015919;28;20046;-74
2022/11/19 07:13:56;;;;;;;14.90;12.45;;;-2.00;99.90;;;;;;5016069;28;20454;-74
2022/11/19 07:16:29;;;;;;;15.65;12.85;;;-2.00;99.90;;;;;;5015650;28;20077;-75
2022/11/19 07:18:57;;;;;;;15.00;12.60;;;-2.00;99.90;;;;;;5015746;28;20034;-74
2022/11/19 07:21:23;;;;;;;15.65;12.90;;;-2.00;99.90;;;;;;5016231;28;20057;-74
2022/11/19 07:23:49;;;;;;;15.25;13.30;;;-2.00;99.90;;;;;;5015982;28;20054;-74
2022/11/19 07:26:14;;;;;;;15.25;13.32;;;-1.20;99.90;;;;;;5017811;28;20053;-74
2022/11/19 07:28:40;;;;;;;15.23;12.93;;;-2.00;99.90;;;;;;5015519;28;20052;-75
2022/11/19 07:31:06;;;;;;;15.00;12.90;;;-2.00;99.90;;;;;;5015198;28;20052;-76
2022/11/19 07:33:34;;;;;;;15.85;13.52;;;-2.00;99.90;;;;;;5012441;28;20050;-76
2022/11/19 07:36:01;;;;;;;17.35;13.50;;;-2.00;99.90;;;;;;5014872;28;20413;-75
2022/11/19 07:38:26;;;;;;;16.35;14.27;;;-2.00;99.90;;;;;;5015426;28;20042;-74
2022/11/19 07:40:53;;;;;;;15.65;13.55;;;-2.00;99.90;;;;;;5015638;28;20096;-73
2022/11/19 07:43:19;;;;;;;14.65;12.77;;;-2.00;99.90;;;;;;4997982;28;20049;-75
2022/11/19 07:45:44;;;;;;;14.45;12.90;;;-2.00;99.90;;;;;;5014932;28;20646;-75
2022/11/19 07:48:10;;;;;;;15.50;13.40;;;-2.00;99.90;;;;;;5015326;28;20116;-75
2022/11/19 07:50:36;;;;;;;16.38;14.60;;;-2.00;99.90;;;;;;5015481;28;20454;-75
2022/11/19 07:53:02;;;;;;;14.25;12.75;;;-2.00;99.90;;;;;;5015032;28;20045;-75
2022/11/19 07:55:27;;;;;;;15.60;13.95;;;-1.90;99.90;;;;;;5016052;28;20088;-75
2022/11/19 07:57:53;;;;;;;15.63;13.80;;;-1.90;99.90;;;;;;5015560;28;20071;-75
2022/11/19 08:00:19;;;;;;;16.33;14.02;;;-1.90;99.90;;;;;;5014999;28;20124;-75
2022/11/19 08:02:44;;;;;;;16.58;13.93;;;-1.90;99.90;;;;;;5014837;28;20050;-75
2022/11/19 08:05:10;;;;;;;15.90;14.20;;;-1.90;99.90;;;;;;5015056;28;20041;-75
2022/11/19 08:07:37;;;;;;;16.83;13.80;;;-1.80;99.90;;;;;;5014704;28;20053;-75
2022/11/19 08:10:05;;;;;;;14.95;13.30;;;-1.80;99.90;;;;;;5015316;28;20386;-75
2022/11/19 08:12:31;;;;;;;16.70;14.75;;;-1.80;99.90;;;;;;5015814;28;20435;-74
2022/11/19 08:14:56;;;;;;;16.60;14.35;;;-1.70;99.90;;;;;;5015264;28;20052;-75
2022/11/19 08:20:06;;;;;;;;;;;-1.70;99.90;;;;;;5015421;28;20516;-75
2022/11/19 08:22:35;;;;;;;17.38;14.50;;;-1.70;99.90;;;;;;5015141;28;19922;-75
2022/11/19 08:25:02;;;;;;;17.23;14.35;;;-1.60;99.90;;;;;;5014988;28;20049;-76
2022/11/19 08:27:27;;;;;;;16.70;14.43;;;-0.70;99.90;;;;;;5010967;28;20039;-73
2022/11/19 08:29:53;;;;;;;16.98;14.80;;;-1.60;99.90;;;;;;4997374;28;20057;-71
2022/11/19 08:32:18;;;;;;;16.90;13.85;;;-1.60;99.90;;;;;;5014517;28;20077;-72
2022/11/19 08:34:44;;;;;;;15.70;14.00;;;-1.60;99.90;;;;;;5014904;28;20172;-71
2022/11/19 08:37:12;;;;;;;16.83;14.52;;;-1.50;99.90;;;;;;5015021;28;20425;-74
2022/11/19 08:39:39;;;;;;;17.25;15.02;;;-1.50;99.90;;;;;;5014817;28;20053;-73
2022/11/19 08:44:50;;;;;;;16.40;14.68;;;-1.50;99.90;;;;;;4997642;28;20050;-73
2022/11/19 08:47:15;;;;;;;16.48;14.48;;;-1.50;99.90;;;;;;5014594;28;20042;-74
2022/11/19 08:49:41;;;;;;;16.60;14.65;;;-1.40;99.90;;;;;;5014969;28;20056;-73
2022/11/19 08:52:07;;;;;;;16.58;14.45;;;-1.40;99.90;;;;;;5014667;28;20038;-74
2022/11/19 08:54:33;;;;;;;20.08;15.15;;;-1.40;99.90;;;;;;5015542;28;20115;-73
2022/11/19 08:56:58;;;;;;;18.55;14.77;;;-1.30;99.90;;;;;;5014936;28;20371;-74
2022/11/19 08:59:24;;;;;;;17.17;14.48;;;-1.30;99.90;;;;;;5014447;28;20454;-73
2022/11/19 09:01:50;;;;;;;16.63;14.13;;;-1.20;99.90;;;;;;5014513;28;20057;-73
2022/11/19 09:04:16;;;;;;;16.23;14.48;;;-1.20;99.90;;;;;;5014715;28;20052;-73
2022/11/19 09:06:42;;;;;;;17.52;14.32;;;-1.20;99.90;;;;;;5014691;28;20431;-74
2022/11/19 09:09:07;;;;;;;16.77;14.52;;;-1.10;99.90;;;;;;5022393;28;20056;-73
2022/11/19 09:11:34;;;;;;;17.80;15.52;;;-1.10;99.90;;;;;;5034252;28;20049;-73
2022/11/19 09:14:00;;;;;;;17.10;14.52;;;-1.10;99.90;;;;;;5034308;28;20092;-73
2022/11/19 09:16:26;;;;;;;16.17;14.20;;;-1.10;99.90;;;;;;5025552;28;20042;-74
2022/11/19 09:18:52;;;;;;;15.90;13.73;;;-1.00;99.90;;;;;;5015823;28;20057;-73
2022/11/19 09:21:17;;;;;;;16.38;14.25;;;-1.00;99.90;;;;;;5018186;28;20041;-73
2022/11/19 09:23:43;;;;;;;16.42;14.13;;;-0.90;99.90;;;;;;5017982;28;20049;-74
2022/11/19 09:26:17;;;;;;;18.00;14.02;;;-0.90;99.90;;;;;;5017617;28;20038;-73
2022/11/19 09:28:42;;;;;;;;;;;-0.90;99.90;;;;;;5018166;28;20046;-73
2022/11/19 09:31:15;;;;;;;15.23;13.63;;;-0.80;99.90;;;;;;5023848;28;20038;-73
2022/11/19 09:33:43;;;;;;;15.88;14.10;;;-0.80;99.90;;;;;;5037292;28;20100;-71
2022/11/19 09:36:10;;;;;;;15.90;14.20;;;-0.80;99.90;;;;;;5037554;28;20361;-73
2022/11/19 09:38:36;;;;;;;16.27;14.32;;;-0.70;99.90;;;;;;5037030;28;20046;-74
2022/11/19 09:41:16;;;;;;;16.50;13.90;;;-0.70;99.90;;;;;;5037412;28;20064;-74
2022/11/19 09:43:57;;;;;;;17.35;13.90;;;-0.60;99.90;;;;;;5020084;28;20107;-73
2022/11/19 09:46:42;;;;;;;16.75;13.93;;;-0.60;99.90;;;;;;5026008;28;20525;-74
2022/11/19 09:49:17;;;;;;;18.33;14.23;;;-0.60;99.90;;;;;;5017247;28;20383;-74
2022/11/19 09:51:50;;;;;;;16.85;14.45;;;-0.40;99.90;;;;;;4999958;28;20474;-74
2022/11/19 09:54:18;;;;;;;15.27;13.40;;;-0.50;99.90;;;;;;5017386;28;20049;-74
2022/11/19 09:56:46;;;;;;;15.38;13.77;;;-0.50;99.90;;;;;;5017600;28;20437;-73
2022/11/19 09:59:21;;;;;;;18.13;14.23;;;-0.40;99.90;;;;;;5017012;28;20049;-75
2022/11/19 10:01:47;;;;;;;18.90;14.27;;;-0.40;99.90;;;;;;4997671;28;20038;-74
2022/11/19 10:04:13;;;;;;;15.93;14.25;;;-0.30;99.90;;;;;;5013104;28;20056;-76
2022/11/19 10:07:05;;;;;;;16.58;13.30;;;-0.40;99.90;;;;;;5017302;28;20053;-73
2022/11/19 10:09:52;;;;;;;16.00;13.63;;;-0.40;99.90;;;;;;5013233;28;20062;-73
2022/11/19 10:12:52;;;;;;;16.73;13.80;;;-0.30;99.90;;;;;;5017475;28;20046;-72
2022/11/19 10:15:36;;;;;;;13.90;12.40;;;-0.30;99.90;;;;;;4999145;28;20104;-73
2022/11/19 10:18:04;;;;;;;14.98;12.93;;;-0.20;99.90;;;;;;5016793;28;20038;-73
2022/11/19 10:20:38;;;;;;;17.45;14.00;;;-0.10;99.90;;;;;;5017031;28;20057;-72
2022/11/19 10:23:15;;;;;;;17.25;13.75;;;-0.10;99.90;;;;;;5016804;28;20133;-73
2022/11/19 10:25:46;;;;;;;15.90;12.93;;;-0.10;99.90;;;;;;5016011;28;20141;-73
2022/11/19 10:28:25;;;;;;;16.42;12.93;;;-0.10;99.90;;;;;;4982050;28;20347;-74
2022/11/19 10:30:54;;;;;;;14.23;11.75;;;-0.10;99.90;;;;;;5015610;28;20060;-71
2022/11/19 10:33:52;;;;;;;13.88;12.38;;;0.00;99.90;;;;;;5008936;28;20497;-72
2022/11/19 10:36:46;;;;;;;13.80;11.73;;;0.10;99.90;;;;;;5016613;28;20092;-74
2022/11/19 10:39:16;;;;;;;14.88;12.05;;;0.10;99.90;;;;;;4977917;28;20086;-75
2022/11/19 10:41:49;;;;;;;12.85;11.55;;;0.20;99.90;;;;;;5016082;28;20117;-74
2022/11/19 10:44:41;;;;;;;12.73;11.30;;;0.20;99.90;;;;;;5016563;28;20470;-74
2022/11/19 10:47:21;;;;;;;14.43;12.60;;;0.30;99.90;;;;;;5015800;28;20046;-74
2022/11/19 10:49:52;;;;;;;14.18;11.57;;;0.30;99.90;;;;;;5016373;28;20052;-73
2022/11/19 10:52:40;;;;;;;13.73;10.95;;;0.40;99.90;;;;;;5015795;28;20517;-74
2022/11/19 10:55:36;;;;;;;12.60;10.85;;;0.40;99.90;;;;;;5015852;28;20041;-74
2022/11/19 10:58:23;;;;;;;12.85;10.43;;;0.50;99.90;;;;;;4998738;28;20529;-73
2022/11/19 11:00:49;;;;;;;12.38;11.07;;;0.50;99.90;;;;;;5015832;28;20053;-73
2022/11/19 11:03:23;;;;;;;13.43;11.18;;;0.60;99.90;;;;;;5015953;28;20078;-73
2022/11/19 11:06:04;;;;;;;12.80;10.60;;;0.60;99.90;;;;;;5015854;28;20046;-73
2022/11/19 11:08:30;;;;;;;12.98;10.63;;;0.60;99.90;;;;;;5015195;28;20053;-73
2022/11/19 11:10:56;;;;;;;11.68;10.38;;;0.70;99.90;;;;;;5015253;28;20045;-72
2022/11/19 11:16:26;;;;;;;12.80;10.48;;;0.80;99.90;;;;;;5015336;28;20065;-73
2022/11/19 11:18:55;;;;;;;11.95;10.65;;;0.80;99.90;;;;;;5015946;28;20124;-73
2022/11/19 11:21:41;;;;;;;12.60;11.13;;;0.90;99.90;;;;;;5016241;28;20413;-73
2022/11/19 11:24:08;;;;;;;13.35;11.27;;;0.90;99.90;;;;;;5015596;28;20046;-73
2022/11/19 11:26:36;;;;;;;12.05;10.32;;;0.90;99.90;;;;;;5015643;28;20042;-72
2022/11/19 11:29:04;;;;;;;12.27;10.52;;;0.90;99.90;;;;;;5015228;28;20125;-72
2022/11/19 11:31:46;;;;;;;12.57;10.68;;;0.90;99.90;;;;;;5014918;28;20064;-72
2022/11/19 11:34:38;;;;;;;12.25;9.82;;;1.00;99.90;;;;;;5015373;28;20069;-73
2022/11/19 11:37:05;;;;;;;11.20;9.40;;;1.10;99.90;;;;;;5015297;28;20053;-72
2022/11/19 11:39:35;;;;;;;12.02;9.75;;;1.10;99.90;;;;;;5015026;28;20130;-72
2022/11/19 11:42:01;;;;;;;10.88;9.70;;;1.20;99.90;;;;;;5014396;28;20073;-73
2022/11/19 11:44:34;;;;;;;11.13;9.15;;;1.90;99.90;;;;;;5015073;28;20062;-72
2022/11/19 11:47:03;;;;;;;10.70;8.95;;;1.30;99.90;;;;;;5015176;28;20053;-73
2022/11/19 11:49:39;;;;;;;10.40;9.13;;;1.30;99.90;;;;;;5015052;28;20064;-72
2022/11/19 11:52:08;;;;;;;10.82;9.52;;;1.40;99.90;;;;;;5014762;28;20053;-73
2022/11/19 11:54:35;;;;;;;10.93;9.45;;;1.40;99.90;;;;;;5015112;28;20073;-72
2022/11/19 11:57:14;;;;;;;11.70;9.82;;;1.40;99.90;;;;;;5014466;28;20366;-73
2022/11/19 11:59:40;;;;;;;10.23;8.77;;;1.40;99.90;;;;;;4995304;28;20042;-73
2022/11/19 12:02:07;;;;;;;11.63;9.02;;;1.40;99.90;;;;;;4995925;28;20419;-72
2022/11/19 12:04:33;;;;;;;10.93;8.95;;;1.50;99.90;;;;;;4995419;28;20100;-73
2022/11/19 12:07:23;;;;;;;10.32;8.98;;;1.50;99.90;;;;;;4995824;28;20045;-73
2022/11/19 12:10:19;;;;;;;10.18;8.82;;;1.60;99.90;;;;;;4994904;28;20490;-73
2022/11/19 12:13:12;;;;;;;10.48;9.38;;;1.60;99.90;;;;;;4995422;28;20141;-73
2022/11/19 12:16:04;;;;;;;11.48;8.77;;;1.60;99.90;;;;;;4995424;28;20077;-73
2022/11/19 12:18:57;;;;;;;10.77;9.40;;;1.60;99.90;;;;;;4995238;28;20053;-73
2022/11/19 12:21:37;;;;;;;11.87;9.10;;;1.70;99.90;;;;;;4995415;28;20053;-73
2022/11/19 12:24:27;;;;;;;10.88;8.77;;;1.70;99.90;;;;;;4995510;28;20094;-73
2022/11/19 12:27:16;;;;;;;12.27;8.48;;;1.80;99.90;;;;;;5011122;28;20434;-71
2022/11/19 12:30:05;;;;;;;10.95;8.85;;;1.80;99.90;;;;;;5014861;28;20046;-74
2022/11/19 12:32:59;;;;;;;11.25;8.20;;;1.80;99.90;;;;;;5014970;28;20061;-74
2022/11/19 12:35:39;;;;;;;9.55;8.48;;;1.90;99.90;;;;;;5014737;28;20061;-74
2022/11/19 12:38:35;;;;;;;12.32;8.23;;;1.90;99.90;;;;;;5015153;28;20046;-72
2022/11/19 12:41:00;;;;;;;12.23;8.50;;;2.00;99.90;;;;;;5014481;28;20057;-74
2022/11/19 12:43:55;;;;;;;11.95;8.55;;;2.00;99.90;;;;;;4997509;28;20465;-74
2022/11/19 12:46:31;;;;;;;9.05;8.10;;;2.00;99.90;;;;;;5012271;28;20140;-73
2022/11/19 12:49:14;;;;;;;10.07;8.23;;;2.10;99.90;;;;;;5015163;28;20054;-73
2022/11/19 12:52:12;;;;;;;10.50;7.45;;;2.10;99.90;;;;;;5014735;28;20458;-73
2022/11/19 12:55:00;;;;;;;8.40;7.05;;;2.20;99.90;;;;;;5018499;28;20414;-73
2022/11/19 12:57:53;;;;;;;9.15;7.70;;;2.20;99.90;;;;;;4991808;28;20042;-73
2022/11/19 13:00:21;;;;;;;10.82;7.20;;;2.20;99.90;;;;;;4999044;28;20054;-73
2022/11/19 13:02:50;;;;;;;12.02;7.30;;;2.30;99.90;;;;;;4998890;28;20194;-73
2022/11/19 13:05:26;;;;;;;9.55;7.30;;;2.30;99.90;;;;;;4998517;28;20053;-73
2022/11/19 13:07:57;;;;;;;10.75;7.25;;;2.40;99.90;;;;;;4998604;28;20137;-73
2022/11/19 13:10:28;;;;;;;10.07;7.07;;;2.40;99.90;;;;;;5005362;28;20485;-71
2022/11/19 13:12:58;;;;;;;9.77;7.53;;;2.40;99.90;;;;;;5018231;28;20061;-71
2022/11/19 13:15:38;;;;;;;8.88;7.38;;;2.40;99.90;;;;;;5017902;28;20115;-71
2022/11/19 13:18:12;;;;;;;9.73;7.80;;;2.40;99.90;;;;;;5018075;28;20057;-71